createdAt,value
2022-10-09T00:01:03.187Z,101546.00
2022-10-09T00:03:05.987Z,101546.69
2022-10-09T00:05:10.510Z,101544.78
2022-10-09T00:07:13.337Z,101542.97
2022-10-09T00:09:17.075Z,101534.22
2022-10-09T00:11:22.054Z,101544.63
2022-10-09T00:13:24.957Z,101530.63
2022-10-09T00:15:27.843Z,101529.72
2022-10-09T00:17:32.169Z,101532.28
2022-10-09T00:19:34.953Z,101532.19
2022-10-09T00:21:39.110Z,101533.13
2022-10-09T00:23:41.902Z,101531.31
2022-10-09T00:25:53.230Z,101532.91
2022-10-09T00:27:58.007Z,101535.44
2022-10-09T00:30:00.762Z,101540.66
2022-10-09T00:32:03.468Z,101539.00
2022-10-09T00:34:06.479Z,101530.22
2022-10-09T00:36:11.686Z,101526.63
2022-10-09T00:38:16.063Z,101524.72
2022-10-09T00:40:18.829Z,101523.91
2022-10-09T00:42:21.585Z,101530.84
2022-10-09T00:44:48.153Z,101529.88
2022-10-09T00:46:53.176Z,101533.19
2022-10-09T00:49:04.467Z,101520.13
2022-10-09T00:51:07.310Z,101522.59
2022-10-09T00:53:13.944Z,101522.53
2022-10-09T00:55:18.426Z,101523.41
2022-10-09T00:57:21.608Z,101521.69
2022-10-09T00:59:24.914Z,101520.84
2022-10-09T01:01:27.976Z,101523.44
2022-10-09T01:03:30.746Z,101513.84
2022-10-09T01:05:44.701Z,101515.53
2022-10-09T01:07:51.469Z,101515.53
2022-10-09T01:10:00.397Z,101505.19
2022-10-09T01:12:13.401Z,101515.63
2022-10-09T01:14:23.729Z,101513.84
2022-10-09T01:16:29.246Z,101512.97
2022-10-09T01:18:39.198Z,101510.44
2022-10-09T01:20:48.048Z,101510.44
2022-10-09T01:23:04.570Z,101502.66
2022-10-09T01:25:11.998Z,101502.63
2022-10-09T01:27:18.404Z,101503.44
2022-10-09T01:29:24.638Z,101501.66
2022-10-09T01:31:31.607Z,101507.69
2022-10-09T01:33:34.968Z,101500.69
2022-10-09T01:35:38.563Z,101504.22
2022-10-09T01:37:43.994Z,101496.28
2022-10-09T01:39:48.488Z,101497.16
2022-10-09T01:41:53.091Z,101495.34
2022-10-09T01:43:57.241Z,101500.50
2022-10-09T01:46:19.573Z,101498.00
2022-10-09T01:48:25.686Z,101494.69
2022-10-09T01:50:33.708Z,101490.22
2022-10-09T01:52:44.511Z,101492.75
2022-10-09T01:54:59.521Z,101490.84
2022-10-09T01:57:06.052Z,101491.59
2022-10-09T01:59:16.047Z,101488.09
2022-10-09T02:01:22.061Z,101487.13
2022-10-09T02:03:27.882Z,101484.44
2022-10-09T02:05:32.271Z,101488.75
2022-10-09T02:07:35.802Z,101481.78
2022-10-09T02:09:40.698Z,101480.88
2022-10-09T02:11:45.623Z,101482.13
2022-10-09T02:13:52.852Z,101479.63
2022-10-09T02:16:03.008Z,101479.66
2022-10-09T02:18:10.752Z,101472.63
2022-10-09T02:20:20.571Z,101471.81
2022-10-09T02:22:27.804Z,101468.56
2022-10-09T02:24:30.886Z,101465.25
2022-10-09T02:26:33.786Z,101467.16
2022-10-09T02:28:37.299Z,101469.16
2022-10-09T02:31:13.105Z,101463.22
2022-10-09T02:33:15.876Z,101460.59
2022-10-09T02:35:18.910Z,101462.38
2022-10-09T02:37:21.627Z,101458.97
2022-10-09T02:39:24.638Z,101465.13
2022-10-09T02:41:27.658Z,101455.56
2022-10-09T02:43:30.431Z,101457.50
2022-10-09T02:45:33.171Z,101453.91
2022-10-09T02:47:37.293Z,101451.31
2022-10-09T02:49:40.057Z,101452.91
2022-10-09T02:51:42.816Z,101457.13
2022-10-09T02:53:45.755Z,101451.94
2022-10-09T02:55:48.558Z,101463.22
2022-10-09T02:57:51.351Z,101456.97
2022-10-09T02:59:54.133Z,101458.75
2022-10-09T03:01:56.955Z,101458.88
2022-10-09T03:04:01.141Z,101455.28
2022-10-09T03:06:06.403Z,101454.56
2022-10-09T03:08:09.210Z,101452.78
2022-10-09T03:10:11.951Z,101452.56
2022-10-09T03:12:16.156Z,101453.25
2022-10-09T03:14:19.028Z,101443.84
2022-10-09T03:16:23.662Z,101448.28
2022-10-09T03:18:26.493Z,101445.53
2022-10-09T03:20:32.005Z,101454.06
2022-10-09T03:22:34.938Z,101451.28
2022-10-09T03:24:37.667Z,101446.09
2022-10-09T03:26:40.420Z,101453.88
2022-10-09T03:28:45.587Z,101456.34
2022-10-09T03:30:48.659Z,101450.53
2022-10-09T03:32:51.566Z,101458.16
2022-10-09T03:34:54.502Z,101459.97
2022-10-09T03:36:58.588Z,101453.09
2022-10-09T03:39:01.388Z,101458.97
2022-10-09T03:41:06.584Z,101465.97
2022-10-09T03:43:09.939Z,101452.69
2022-10-09T03:45:12.789Z,101451.88
2022-10-09T03:47:15.587Z,101450.19
2022-10-09T03:49:18.342Z,101451.09
2022-10-09T03:51:21.141Z,101459.63
2022-10-09T03:53:25.235Z,101448.41
2022-10-09T03:55:27.959Z,101456.03
2022-10-09T03:57:30.719Z,101449.78
2022-10-09T03:59:33.482Z,101456.78
2022-10-09T04:01:36.756Z,101450.53
2022-10-09T04:03:39.554Z,101454.78
2022-10-09T04:05:42.372Z,101453.84
2022-10-09T04:07:45.225Z,101462.63
2022-10-09T04:09:49.373Z,101460.03
2022-10-09T04:11:53.018Z,101457.28
2022-10-09T04:13:55.803Z,101453.22
2022-10-09T04:15:58.719Z,101450.44
2022-10-09T04:18:01.537Z,101456.41
2022-10-09T04:20:04.987Z,101455.47
2022-10-09T04:22:07.756Z,101457.06
2022-10-09T04:24:10.534Z,101452.72
2022-10-09T04:26:15.061Z,101457.06
2022-10-09T04:28:17.921Z,101450.59
2022-10-09T04:30:20.842Z,101449.78
2022-10-09T04:32:23.588Z,101451.38
2022-10-09T04:34:26.368Z,101446.88
2022-10-09T04:36:29.096Z,101452.38
2022-10-09T04:38:32.462Z,101451.47
2022-10-09T04:40:35.250Z,101454.03
2022-10-09T04:42:39.482Z,101444.44
2022-10-09T04:44:42.246Z,101442.72
2022-10-09T04:46:45.125Z,101440.19
2022-10-09T04:48:48.269Z,101446.22
2022-10-09T04:50:51.047Z,101448.69
2022-10-09T04:52:53.811Z,101435.69
2022-10-09T04:54:56.540Z,101443.97
2022-10-09T04:56:59.247Z,101445.81
2022-10-09T04:59:03.407Z,101442.25
2022-10-09T05:01:08.240Z,101447.44
2022-10-09T05:03:11.488Z,101442.66
2022-10-09T05:05:14.295Z,101439.31
2022-10-09T05:07:17.096Z,101440.44
2022-10-09T05:09:20.061Z,101439.41
2022-10-09T05:11:25.424Z,101436.72
2022-10-09T05:13:30.548Z,101440.09
2022-10-09T05:15:37.358Z,101450.53
2022-10-09T05:17:40.221Z,101450.59
2022-10-09T05:19:43.010Z,101448.94
2022-10-09T05:21:45.960Z,101448.88
2022-10-09T05:23:49.238Z,101449.81
2022-10-09T05:25:55.572Z,101449.72
2022-10-09T05:28:00.189Z,101442.66
2022-10-09T05:30:02.952Z,101443.28
2022-10-09T05:32:07.429Z,101452.81
2022-10-09T05:34:10.462Z,101447.38
2022-10-09T05:36:13.316Z,101452.41
2022-10-09T05:38:16.054Z,101454.19
2022-10-09T05:40:19.019Z,101449.19
2022-10-09T05:42:21.766Z,101457.03
2022-10-09T05:44:24.675Z,101457.03
2022-10-09T05:46:27.577Z,101457.72
2022-10-09T05:48:31.665Z,101463.75
2022-10-09T05:50:34.461Z,101451.56
2022-10-09T05:52:38.465Z,101455.88
2022-10-09T05:54:41.853Z,101458.66
2022-10-09T05:56:45.440Z,101454.81
2022-10-09T05:58:52.031Z,101452.31
2022-10-09T06:00:54.801Z,101447.78
2022-10-09T06:02:57.808Z,101457.31
2022-10-09T06:05:01.970Z,101449.41
2022-10-09T06:07:04.743Z,101447.78
2022-10-09T06:09:08.926Z,101448.56
2022-10-09T06:11:13.925Z,101439.00
2022-10-09T06:13:16.733Z,101444.09
2022-10-09T06:15:19.576Z,101453.38
2022-10-09T06:17:22.353Z,101453.09
2022-10-09T06:19:25.294Z,101455.88
2022-10-09T06:21:30.028Z,101457.81
2022-10-09T06:23:32.941Z,101455.88
2022-10-09T06:25:35.728Z,101463.63
2022-10-09T06:27:38.480Z,101468.09
2022-10-09T06:29:42.443Z,101462.13
2022-10-09T06:31:45.222Z,101454.41
2022-10-09T06:33:49.470Z,101457.03
2022-10-09T06:35:52.332Z,101459.53
2022-10-09T06:37:56.434Z,101459.59
2022-10-09T06:39:59.201Z,101462.13
2022-10-09T06:42:01.945Z,101462.91
2022-10-09T06:44:17.157Z,101465.50
2022-10-09T06:46:21.917Z,101457.81
2022-10-09T06:48:24.726Z,101466.56
2022-10-09T06:50:27.489Z,101462.19
2022-10-09T06:52:30.264Z,101455.97
2022-10-09T06:54:34.474Z,101464.69
2022-10-09T06:56:37.492Z,101467.94
2022-10-09T06:59:02.037Z,101465.84
2022-10-09T07:01:06.901Z,101464.25
2022-10-09T07:03:09.592Z,101463.19
2022-10-09T07:05:12.515Z,101468.72
2022-10-09T07:07:18.140Z,101470.97
2022-10-09T07:09:24.584Z,101461.47
2022-10-09T07:11:31.417Z,101466.28
2022-10-09T07:13:34.293Z,101467.28
2022-10-09T07:15:37.124Z,101465.06
2022-10-09T07:17:40.043Z,101463.59
2022-10-09T07:19:42.796Z,101467.75
2022-10-09T07:21:47.909Z,101464.56
2022-10-09T07:23:51.131Z,101469.06
2022-10-09T07:25:53.879Z,101475.13
2022-10-09T07:27:57.988Z,101473.53
2022-10-09T07:30:01.133Z,101473.44
2022-10-09T07:32:06.982Z,101467.66
2022-10-09T07:34:13.200Z,101470.09
2022-10-09T07:36:16.097Z,101465.69
2022-10-09T07:38:19.730Z,101466.09
2022-10-09T07:40:22.665Z,101464.69
2022-10-09T07:42:26.603Z,101456.50
2022-10-09T07:44:31.262Z,101465.41
2022-10-09T07:46:34.453Z,101459.41
2022-10-09T07:48:38.186Z,101461.69
2022-10-09T07:50:41.261Z,101464.75
2022-10-09T07:52:44.075Z,101460.38
2022-10-09T07:54:46.812Z,101461.28
2022-10-09T07:56:49.571Z,101456.06
2022-10-09T07:58:53.826Z,101460.63
2022-10-09T08:00:57.984Z,101456.44
2022-10-09T08:03:00.768Z,101455.06
2022-10-09T08:05:03.775Z,101458.63
2022-10-09T08:07:06.544Z,101456.03
2022-10-09T08:09:09.699Z,101450.03
2022-10-09T08:11:14.383Z,101456.59
2022-10-09T08:13:17.185Z,101454.25
2022-10-09T08:15:19.952Z,101453.53
2022-10-09T08:17:24.039Z,101434.63
2022-10-09T08:19:26.759Z,101441.81
2022-10-09T08:21:30.085Z,101444.59
2022-10-09T08:23:32.866Z,101442.22
2022-10-09T08:25:36.111Z,101438.22
2022-10-09T08:27:41.303Z,101428.91
2022-10-09T08:29:44.998Z,101433.31
2022-10-09T08:31:48.243Z,101442.19
2022-10-09T08:33:57.046Z,101435.59
2022-10-09T08:36:07.921Z,101432.91
2022-10-09T08:38:25.355Z,101420.88
2022-10-09T08:40:45.587Z,101418.28
2022-10-09T08:42:53.864Z,101420.66
2022-10-09T08:44:57.841Z,101425.94
2022-10-09T08:47:08.104Z,101424.16
2022-10-09T08:49:23.095Z,101424.34
2022-10-09T08:51:29.366Z,101429.78
2022-10-09T08:53:40.474Z,101423.81
2022-10-09T08:55:50.132Z,101423.88
2022-10-09T08:57:55.881Z,101420.59
2022-10-09T08:59:58.707Z,101418.19
2022-10-09T09:02:13.529Z,101419.44
2022-10-09T09:04:32.199Z,101417.25
2022-10-09T09:06:41.637Z,101408.56
2022-10-09T09:08:52.163Z,101403.84
2022-10-09T09:11:08.765Z,101409.28
2022-10-09T09:13:29.216Z,101399.63
2022-10-09T09:15:44.707Z,101398.75
2022-10-09T09:17:55.118Z,101389.41
2022-10-09T09:20:06.323Z,101389.81
2022-10-09T09:22:13.042Z,101385.50
2022-10-09T09:24:19.290Z,101383.78
2022-10-09T09:26:24.158Z,101379.53
2022-10-09T09:28:30.209Z,101377.16
2022-10-09T09:30:36.646Z,101379.06
2022-10-09T09:32:43.191Z,101380.06
2022-10-09T09:34:46.297Z,101364.59
2022-10-09T09:36:55.126Z,101373.41
2022-10-09T09:41:21.404Z,101364.75
2022-10-09T09:43:26.785Z,101359.47
2022-10-09T09:45:29.738Z,101355.28
2022-10-09T09:47:37.114Z,101354.50
2022-10-09T09:49:39.960Z,101339.63
2022-10-09T09:51:42.856Z,101352.00
2022-10-09T09:53:49.792Z,101348.59
2022-10-09T09:55:53.446Z,101341.66
2022-10-09T09:58:02.469Z,101340.91
2022-10-09T10:00:11.505Z,101334.88
2022-10-09T10:02:18.969Z,101324.47
2022-10-09T10:04:21.850Z,101320.22
2022-10-09T10:06:26.026Z,101325.38
2022-10-09T10:08:32.230Z,101322.00
2022-10-09T10:10:36.440Z,101310.81
2022-10-09T10:12:41.775Z,101320.44
2022-10-09T10:14:50.943Z,101316.91
2022-10-09T10:16:55.932Z,101316.91
2022-10-09T10:18:59.472Z,101309.03
2022-10-09T10:21:05.518Z,101315.19
2022-10-09T10:23:23.936Z,101309.97
2022-10-09T10:25:31.143Z,101304.78
2022-10-09T10:27:41.676Z,101301.25
2022-10-09T10:29:47.684Z,101302.19
2022-10-09T10:31:54.989Z,101292.59
2022-10-09T10:33:58.913Z,101294.31
2022-10-09T10:36:02.465Z,101287.34
2022-10-09T10:38:13.193Z,101281.19
2022-10-09T10:40:21.477Z,101281.22
2022-10-09T10:42:29.509Z,101274.25
2022-10-09T10:44:42.264Z,101274.25
2022-10-09T10:46:50.219Z,101273.38
2022-10-09T10:48:53.849Z,101269.00
2022-10-09T10:51:07.743Z,101270.75
2022-10-09T10:53:23.302Z,101256.78
2022-10-09T10:55:38.365Z,101263.78
2022-10-09T10:57:47.417Z,101257.59
2022-10-09T11:00:00.401Z,101255.91
2022-10-09T11:02:31.974Z,101255.88
2022-10-09T11:04:42.729Z,101248.00
2022-10-09T11:06:54.583Z,101243.63
2022-10-09T11:09:09.108Z,101243.66
2022-10-09T11:11:19.367Z,101247.19
2022-10-09T11:13:26.669Z,101241.94
2022-10-09T11:15:37.818Z,101238.44
2022-10-09T11:17:51.475Z,101236.66
2022-10-09T11:20:07.474Z,101240.16
2022-10-09T11:22:21.876Z,101233.16
2022-10-09T11:24:53.638Z,101230.53
2022-10-09T11:27:03.596Z,101219.09
2022-10-09T11:29:13.107Z,101216.44
2022-10-09T11:31:20.878Z,101221.75
2022-10-09T11:33:31.592Z,101212.97
2022-10-09T11:35:42.119Z,101213.88
2022-10-09T11:37:52.493Z,101212.09
2022-10-09T11:39:56.700Z,101210.31
2022-10-09T11:42:01.030Z,101205.94
2022-10-09T11:44:19.413Z,101203.28
2022-10-09T11:46:33.371Z,101197.16
2022-10-09T11:48:43.555Z,101197.13
2022-10-09T11:50:56.479Z,101198.03
2022-10-09T11:53:04.152Z,101192.81
2022-10-09T11:55:18.190Z,101184.91
2022-10-09T11:57:28.910Z,101187.53
2022-10-09T11:59:33.716Z,101182.25
2022-10-09T12:01:40.929Z,101169.94
2022-10-09T12:03:44.665Z,101164.72
2022-10-09T12:05:49.914Z,101165.56
2022-10-09T12:07:53.157Z,101163.84
2022-10-09T12:10:01.383Z,101167.34
2022-10-09T12:12:07.534Z,101154.16
2022-10-09T12:14:15.188Z,101150.69
2022-10-09T12:16:33.675Z,101143.63
2022-10-09T12:18:41.400Z,101140.16
2022-10-09T12:20:47.319Z,101137.53
2022-10-09T12:23:14.331Z,101140.16
2022-10-09T12:25:26.509Z,101132.25
2022-10-09T12:27:33.076Z,101114.72
2022-10-09T12:29:44.174Z,101119.09
2022-10-09T12:31:48.095Z,101117.22
2022-10-09T12:33:55.709Z,101110.25
2022-10-09T12:36:03.819Z,101105.06
2022-10-09T12:38:17.435Z,101099.72
2022-10-09T12:40:24.337Z,101105.00
2022-10-09T12:42:28.101Z,101099.75
2022-10-09T12:44:33.400Z,101096.22
2022-10-09T12:46:39.604Z,101086.63
2022-10-09T12:48:45.742Z,101085.69
2022-10-09T12:50:50.190Z,101082.16
2022-10-09T12:52:55.307Z,101076.06
2022-10-09T12:54:58.420Z,101070.69
2022-10-09T12:57:02.249Z,101075.19
2022-10-09T12:59:06.894Z,101060.25
2022-10-09T13:01:13.446Z,101061.84
2022-10-09T13:03:26.152Z,101061.09
2022-10-09T13:05:37.740Z,101066.44
2022-10-09T13:07:45.341Z,101054.16
2022-10-09T13:09:58.590Z,101051.44
2022-10-09T13:12:07.516Z,101046.91
2022-10-09T13:14:26.567Z,101046.06
2022-10-09T13:16:42.909Z,101039.09
2022-10-09T13:18:56.446Z,101030.41
2022-10-09T13:21:00.774Z,101034.78
2022-10-09T13:23:06.900Z,101031.34
2022-10-09T13:25:10.325Z,101024.31
2022-10-09T13:27:14.943Z,101020.88
2022-10-09T13:29:17.964Z,101019.94
2022-10-09T13:31:20.901Z,101023.44
2022-10-09T13:33:23.880Z,101020.81
2022-10-09T13:35:26.727Z,101019.88
2022-10-09T13:37:29.505Z,101018.31
2022-10-09T13:39:33.636Z,101012.06
2022-10-09T13:41:37.758Z,101014.75
2022-10-09T13:43:40.476Z,101011.28
2022-10-09T13:45:43.387Z,101009.53
2022-10-09T13:47:46.117Z,101003.38
2022-10-09T13:49:48.871Z,100999.72
2022-10-09T13:51:51.658Z,100991.88
2022-10-09T13:53:54.587Z,100987.50
2022-10-09T13:56:00.930Z,100985.81
2022-10-09T13:58:04.660Z,100988.38
2022-10-09T14:00:08.760Z,100992.78
2022-10-09T14:02:17.389Z,100992.63
2022-10-09T14:04:20.748Z,100978.75
2022-10-09T14:06:23.503Z,100977.88
2022-10-09T14:08:26.729Z,100981.44
2022-10-09T14:10:30.008Z,100969.97
2022-10-09T14:12:34.164Z,100970.09
2022-10-09T14:14:36.903Z,100966.50
2022-10-09T14:16:39.699Z,100971.88
2022-10-09T14:18:42.525Z,100966.63
2022-10-09T14:20:45.456Z,100957.03
2022-10-09T14:22:48.378Z,100956.13
2022-10-09T14:24:51.386Z,100956.91
2022-10-09T14:26:54.124Z,100955.19
2022-10-09T14:29:00.470Z,100956.09
2022-10-09T14:31:06.863Z,100945.59
2022-10-09T14:33:09.810Z,100943.78
2022-10-09T14:35:13.220Z,100947.31
2022-10-09T14:37:29.792Z,100944.69
2022-10-09T14:39:38.855Z,100943.88
2022-10-09T14:41:41.655Z,100935.00
2022-10-09T14:43:44.983Z,100938.63
2022-10-09T14:45:49.120Z,100936.84
2022-10-09T14:47:51.894Z,100933.34
2022-10-09T14:49:54.693Z,100926.34
2022-10-09T14:51:57.439Z,100928.16
2022-10-09T14:54:00.315Z,100921.19
2022-10-09T14:56:03.416Z,100917.66
2022-10-09T14:58:06.153Z,100908.97
2022-10-09T15:00:10.040Z,100911.53
2022-10-09T15:02:16.156Z,100910.72
2022-10-09T15:04:18.984Z,100905.34
2022-10-09T15:06:24.688Z,100904.47
2022-10-09T15:08:29.905Z,100904.50
2022-10-09T15:10:35.239Z,100900.09
2022-10-09T15:12:38.032Z,100898.34
2022-10-09T15:14:40.748Z,100898.41
2022-10-09T15:16:43.560Z,100894.00
2022-10-09T15:18:49.751Z,100898.38
2022-10-09T15:20:52.536Z,100891.44
2022-10-09T15:22:57.648Z,100886.09
2022-10-09T15:25:00.781Z,100893.13
2022-10-09T15:27:05.230Z,100891.44
2022-10-09T15:29:09.223Z,100886.13
2022-10-09T15:31:22.032Z,100881.78
2022-10-09T15:33:25.608Z,100883.50
2022-10-09T15:35:29.779Z,100878.22
2022-10-09T15:37:32.646Z,100877.44
2022-10-09T15:39:35.453Z,100882.75
2022-10-09T15:41:40.520Z,100872.16
2022-10-09T15:43:43.292Z,100880.91
2022-10-09T15:45:46.667Z,100862.56
2022-10-09T15:47:51.413Z,100862.53
2022-10-09T15:49:54.619Z,100856.47
2022-10-09T15:51:58.727Z,100855.56
2022-10-09T15:54:02.170Z,100852.84
2022-10-09T15:56:06.269Z,100857.31
2022-10-09T15:58:09.436Z,100859.06
2022-10-09T16:00:13.192Z,100855.56
2022-10-09T16:02:16.040Z,100846.84
2022-10-09T16:04:18.782Z,100845.06
2022-10-09T16:06:24.008Z,100845.09
2022-10-09T16:08:28.742Z,100845.13
2022-10-09T16:10:31.423Z,100842.44
2022-10-09T16:12:34.581Z,100841.63
2022-10-09T16:14:38.227Z,100841.66
2022-10-09T16:16:40.987Z,100843.44
2022-10-09T16:18:43.725Z,100839.81
2022-10-09T16:20:47.250Z,100839.91
2022-10-09T16:22:50.264Z,100835.53
2022-10-09T16:24:54.490Z,100834.72
2022-10-09T16:26:57.251Z,100832.13
2022-10-09T16:29:00.973Z,100837.34
2022-10-09T16:31:04.277Z,100832.13
2022-10-09T16:33:11.596Z,100832.19
2022-10-09T16:35:15.330Z,100837.47
2022-10-09T16:37:18.074Z,100840.09
2022-10-09T16:39:23.536Z,100842.72
2022-10-09T16:41:27.655Z,100847.13
2022-10-09T16:43:33.497Z,100833.13
2022-10-09T16:45:36.429Z,100837.53
2022-10-09T16:47:40.320Z,100837.56
2022-10-09T16:49:43.062Z,100834.09
2022-10-09T16:51:45.840Z,100841.13
2022-10-09T16:53:50.085Z,100842.03
2022-10-09T16:55:52.837Z,100839.41
2022-10-09T16:57:57.813Z,100842.06
2022-10-09T17:00:01.568Z,100842.09
2022-10-09T17:02:04.338Z,100837.75
2022-10-09T17:04:07.125Z,100839.50
2022-10-09T17:06:12.120Z,100841.28
2022-10-09T17:08:16.201Z,100840.41
2022-10-09T17:10:19.232Z,100850.06
2022-10-09T17:12:22.005Z,100845.69
2022-10-09T17:14:26.198Z,100849.19
2022-10-09T17:16:31.589Z,100855.28
2022-10-09T17:18:35.059Z,100857.91
2022-10-09T17:20:38.473Z,100851.78
2022-10-09T17:22:41.337Z,100853.53
2022-10-09T17:24:44.105Z,100853.56
2022-10-09T17:26:46.878Z,100852.66
2022-10-09T17:28:50.046Z,100855.28
2022-10-09T17:30:54.234Z,100847.44
2022-10-09T17:32:56.957Z,100854.41
2022-10-09T17:34:59.711Z,100854.41
2022-10-09T17:37:02.473Z,100848.28
2022-10-09T17:39:06.787Z,100853.50
2022-10-09T17:41:12.235Z,100855.25
2022-10-09T17:43:15.040Z,100851.75
2022-10-09T17:45:17.940Z,100851.75
2022-10-09T17:47:22.063Z,100850.00
2022-10-09T17:49:25.072Z,100849.97
2022-10-09T17:51:30.940Z,100858.72
2022-10-09T17:53:33.741Z,100851.72
2022-10-09T17:55:39.343Z,100856.06
2022-10-09T17:57:42.118Z,100853.44
2022-10-09T17:59:45.018Z,100852.59
2022-10-09T18:01:48.073Z,100849.97
2022-10-09T18:03:52.442Z,100849.06
2022-10-09T18:05:55.267Z,100849.91
2022-10-09T18:07:58.012Z,100849.91
2022-10-09T18:10:01.056Z,100845.56
2022-10-09T18:12:04.006Z,100844.66
2022-10-09T18:14:07.336Z,100854.28
2022-10-09T18:16:11.762Z,100848.13
2022-10-09T18:18:14.597Z,100842.84
2022-10-09T18:20:18.886Z,100842.84
2022-10-09T18:22:21.688Z,100843.69
2022-10-09T18:24:24.579Z,100836.75
2022-10-09T18:26:27.366Z,100832.38
2022-10-09T18:28:30.524Z,100839.31
2022-10-09T18:30:33.517Z,100827.97
2022-10-09T18:32:36.314Z,100830.59
2022-10-09T18:34:39.399Z,100835.81
2022-10-09T18:36:43.963Z,100836.66
2022-10-09T18:38:47.776Z,100832.28
2022-10-09T18:40:50.559Z,100829.66
2022-10-09T18:42:53.489Z,100825.28
2022-10-09T18:44:56.399Z,100816.59
2022-10-09T18:46:59.562Z,100829.69
2022-10-09T18:49:02.913Z,100823.56
2022-10-09T18:51:08.213Z,100820.94
2022-10-09T18:53:13.018Z,100820.94
2022-10-09T18:55:17.658Z,100815.63
2022-10-09T18:57:21.723Z,100819.09
2022-10-09T18:59:24.758Z,100817.41
2022-10-09T19:01:27.656Z,100816.50
2022-10-09T19:03:30.535Z,100816.53
2022-10-09T19:05:33.839Z,100808.69
2022-10-09T19:07:36.820Z,100815.66
2022-10-09T19:09:41.069Z,100813.03
2022-10-09T19:11:43.879Z,100812.16
2022-10-09T19:13:46.752Z,100809.56
2022-10-09T19:15:53.673Z,100814.78
2022-10-09T19:17:56.460Z,100807.78
2022-10-09T19:19:59.298Z,100806.00
2022-10-09T19:22:02.088Z,100802.53
2022-10-09T19:24:06.200Z,100816.44
2022-10-09T19:26:12.698Z,100812.97
2022-10-09T19:28:15.758Z,100811.22
2022-10-09T19:30:18.737Z,100803.38
2022-10-09T19:32:23.801Z,100805.97
2022-10-09T19:34:26.871Z,100805.06
2022-10-09T19:36:33.079Z,100798.13
2022-10-09T19:38:36.574Z,100795.50
2022-10-09T19:40:39.426Z,100798.97
2022-10-09T19:42:43.516Z,100792.88
2022-10-09T19:44:47.471Z,100791.97
2022-10-09T19:46:50.247Z,100790.22
2022-10-09T19:48:53.714Z,100789.38
2022-10-09T19:50:56.488Z,100791.13
2022-10-09T19:53:02.975Z,100787.66
2022-10-09T19:55:06.492Z,100785.88
2022-10-09T19:57:09.297Z,100784.97
2022-10-09T19:59:13.421Z,100788.47
2022-10-09T20:01:18.689Z,100779.69
2022-10-09T20:03:24.017Z,100780.56
2022-10-09T20:05:26.831Z,100776.16
2022-10-09T20:07:29.724Z,100774.44
2022-10-09T20:09:32.609Z,100778.75
2022-10-09T20:11:36.370Z,100784.88
2022-10-09T20:13:40.372Z,100788.31
2022-10-09T20:15:44.524Z,100788.31
2022-10-09T20:17:47.317Z,100788.28
2022-10-09T20:19:50.317Z,100786.53
2022-10-09T20:21:53.040Z,100787.38
2022-10-09T20:23:57.181Z,100787.38
2022-10-09T20:26:00.892Z,100788.19
2022-10-09T20:28:03.710Z,100790.81
2022-10-09T20:30:07.666Z,100782.94
2022-10-09T20:32:12.268Z,100783.78
2022-10-09T20:34:16.383Z,100782.94
2022-10-09T20:36:21.817Z,100782.97
2022-10-09T20:38:25.993Z,100770.81
2022-10-09T20:40:28.883Z,100774.28
2022-10-09T20:42:32.014Z,100767.31
2022-10-09T20:44:34.950Z,100775.97
2022-10-09T20:46:39.494Z,100773.38
2022-10-09T20:48:44.637Z,100768.19
2022-10-09T20:50:47.377Z,100770.81
2022-10-09T20:52:50.498Z,100773.41
2022-10-09T20:54:53.470Z,100762.09
2022-10-09T20:56:57.954Z,100765.63
2022-10-09T20:59:01.469Z,100765.63
2022-10-09T21:01:06.808Z,100758.63
2022-10-09T21:03:12.470Z,100764.69
2022-10-09T21:05:16.973Z,100773.41
2022-10-09T21:07:19.715Z,100767.31
2022-10-09T21:09:22.468Z,100761.22
2022-10-09T21:11:25.603Z,100759.47
2022-10-09T21:13:28.404Z,100767.28
2022-10-09T21:15:31.137Z,100768.19
2022-10-09T21:17:34.333Z,100773.44
2022-10-09T21:19:37.103Z,100768.19
2022-10-09T21:21:41.266Z,100756.00
2022-10-09T21:23:44.882Z,100763.81
2022-10-09T21:25:49.589Z,100760.34
2022-10-09T21:27:52.213Z,100764.59
2022-10-09T21:29:54.970Z,100760.25
2022-10-09T21:31:57.823Z,100765.50
2022-10-09T21:34:01.858Z,100761.09
2022-10-09T21:36:11.114Z,100754.16
2022-10-09T21:38:17.462Z,100755.00
2022-10-09T21:40:20.446Z,100748.88
2022-10-09T21:42:23.234Z,100752.34
2022-10-09T21:44:26.036Z,100747.97
2022-10-09T21:46:29.143Z,100748.81
2022-10-09T21:48:31.868Z,100740.13
2022-10-09T21:50:36.215Z,100740.13
2022-10-09T21:52:39.037Z,100734.91
2022-10-09T21:54:43.096Z,100747.97
2022-10-09T21:56:46.050Z,100745.44
2022-10-09T21:58:51.108Z,100743.56
2022-10-09T22:00:57.942Z,100744.47
2022-10-09T22:03:00.731Z,100746.22
2022-10-09T22:05:03.467Z,100742.72
2022-10-09T22:07:06.293Z,100746.22
2022-10-09T22:09:09.097Z,100747.94
2022-10-09T22:11:13.446Z,100746.16
2022-10-09T22:13:16.290Z,100742.66
2022-10-09T22:15:19.273Z,100751.22
2022-10-09T22:17:22.011Z,100751.03
2022-10-09T22:19:24.770Z,100750.09
2022-10-09T22:21:27.686Z,100753.50
2022-10-09T22:23:30.739Z,100746.47
2022-10-09T22:25:33.524Z,100746.47
2022-10-09T22:27:37.621Z,100754.41
2022-10-09T22:29:40.368Z,100751.84
2022-10-09T22:31:43.143Z,100754.53
2022-10-09T22:33:50.042Z,100745.88
2022-10-09T22:35:52.795Z,100749.31
2022-10-09T22:37:56.185Z,100749.31
2022-10-09T22:39:58.891Z,100753.66
2022-10-09T22:42:01.611Z,100747.53
2022-10-09T22:44:07.468Z,100751.91
2022-10-09T22:46:12.604Z,100747.53
2022-10-09T22:48:15.335Z,100748.38
2022-10-09T22:50:18.288Z,100750.94
2022-10-09T22:52:21.045Z,100749.22
2022-10-09T22:54:23.851Z,100752.50
2022-10-09T22:56:29.524Z,100752.47
2022-10-09T22:58:32.314Z,100745.47
2022-10-09T23:00:38.607Z,100746.31
2022-10-09T23:02:41.407Z,100748.88
2022-10-09T23:04:44.163Z,100747.06
2022-10-09T23:06:50.600Z,100748.78
2022-10-09T23:08:53.582Z,100754.00
2022-10-09T23:10:56.287Z,100741.88
2022-10-09T23:12:59.076Z,100750.56
2022-10-09T23:15:01.790Z,100743.59
2022-10-09T23:17:05.896Z,100744.41
2022-10-09T23:19:09.398Z,100740.03
2022-10-09T23:21:14.923Z,100744.31
2022-10-09T23:23:17.975Z,100730.41
2022-10-09T23:25:20.699Z,100731.28
2022-10-09T23:27:23.505Z,100731.28
2022-10-09T23:29:26.270Z,100732.09
2022-10-09T23:31:30.176Z,100729.44
2022-10-09T23:33:34.430Z,100736.34
2022-10-09T23:35:41.233Z,100732.00
2022-10-09T23:37:43.997Z,100730.19
2022-10-09T23:39:46.773Z,100727.56
2022-10-09T23:41:49.528Z,100724.88
2022-10-09T23:43:52.851Z,100728.22
2022-10-09T23:45:57.184Z,100729.00
2022-10-09T23:47:59.951Z,100722.78
2022-10-09T23:50:04.308Z,100725.41